sensor_id;sensor_type;location;lat;lon;timestamp;P1;durP1;ratioP1;P2;durP2;ratioP2
6979;SDS011;3530;52.832;10.680;2022-09-09T00:00:17;15.45;;;10.60;;
6979;SDS011;3530;52.832;10.680;2022-09-09T00:02:45;14.68;;;10.55;;
6979;SDS011;3530;52.832;10.680;2022-09-09T00:05:25;11.80;;;8.82;;
6979;SDS011;3530;52.832;10.680;2022-09-09T00:07:54;14.40;;;10.07;;
6979;SDS011;3530;52.832;10.680;2022-09-09T00:10:23;10.35;;;8.02;;
6979;SDS011;3530;52.832;10.680;2022-09-09T00:15:26;14.05;;;9.85;;
6979;SDS011;3530;52.832;10.680;2022-09-09T00:21:08;12.25;;;9.10;;
6979;SDS011;3530;52.832;10.680;2022-09-09T00:23:40;11.50;;;8.43;;
6979;SDS011;3530;52.832;10.680;2022-09-09T00:26:20;11.00;;;8.10;;
6979;SDS011;3530;52.832;10.680;2022-09-09T00:28:58;8.48;;;7.63;;
6979;SDS011;3530;52.832;10.680;2022-09-09T00:31:29;10.20;;;7.72;;
6979;SDS011;3530;52.832;10.680;2022-09-09T00:34:18;9.10;;;6.93;;
6979;SDS011;3530;52.832;10.680;2022-09-09T00:36:49;9.52;;;7.60;;
6979;SDS011;3530;52.832;10.680;2022-09-09T00:39:27;10.52;;;8.00;;
6979;SDS011;3530;52.832;10.680;2022-09-09T00:44:30;9.65;;;8.23;;
6979;SDS011;3530;52.832;10.680;2022-09-09T00:47:17;9.77;;;7.35;;
6979;SDS011;3530;52.832;10.680;2022-09-09T00:50:06;8.30;;;6.95;;
6979;SDS011;3530;52.832;10.680;2022-09-09T00:55:46;9.98;;;7.22;;
6979;SDS011;3530;52.832;10.680;2022-09-09T00:58:13;11.88;;;6.80;;
6979;SDS011;3530;52.832;10.680;2022-09-09T01:01:02;8.10;;;7.05;;
6979;SDS011;3530;52.832;10.680;2022-09-09T01:06:02;7.32;;;6.10;;
6979;SDS011;3530;52.832;10.680;2022-09-09T01:11:22;8.80;;;6.93;;
6979;SDS011;3530;52.832;10.680;2022-09-09T01:13:52;9.00;;;7.00;;
6979;SDS011;3530;52.832;10.680;2022-09-09T01:16:23;4.13;;;3.83;;
6979;SDS011;3530;52.832;10.680;2022-09-09T01:18:49;7.65;;;6.93;;
6979;SDS011;3530;52.832;10.680;2022-09-09T01:26:53;6.65;;;5.85;;
6979;SDS011;3530;52.832;10.680;2022-09-09T01:29:20;6.88;;;5.15;;
6979;SDS011;3530;52.832;10.680;2022-09-09T01:31:56;6.95;;;6.25;;
6979;SDS011;3530;52.832;10.680;2022-09-09T01:34:25;7.50;;;6.32;;
6979;SDS011;3530;52.832;10.680;2022-09-09T01:37:11;8.57;;;5.55;;
6979;SDS011;3530;52.832;10.680;2022-09-09T01:39:38;6.47;;;5.88;;
6979;SDS011;3530;52.832;10.680;2022-09-09T01:42:05;8.65;;;5.75;;
6979;SDS011;3530;52.832;10.680;2022-09-09T01:44:32;8.05;;;6.13;;
6979;SDS011;3530;52.832;10.680;2022-09-09T01:46:58;7.03;;;5.68;;
6979;SDS011;3530;52.832;10.680;2022-09-09T01:49:23;7.40;;;5.60;;
6979;SDS011;3530;52.832;10.680;2022-09-09T01:51:50;7.93;;;5.88;;
6979;SDS011;3530;52.832;10.680;2022-09-09T01:54:17;7.07;;;5.65;;
6979;SDS011;3530;52.832;10.680;2022-09-09T02:04:48;6.35;;;5.75;;
6979;SDS011;3530;52.832;10.680;2022-09-09T02:10:28;6.07;;;4.50;;
6979;SDS011;3530;52.832;10.680;2022-09-09T02:13:19;6.22;;;4.82;;
6979;SDS011;3530;52.832;10.680;2022-09-09T02:18:30;10.68;;;5.30;;
6979;SDS011;3530;52.832;10.680;2022-09-09T02:21:00;6.97;;;5.20;;
6979;SDS011;3530;52.832;10.680;2022-09-09T02:23:27;5.15;;;4.70;;
6979;SDS011;3530;52.832;10.680;2022-09-09T02:25:53;5.07;;;4.57;;
6979;SDS011;3530;52.832;10.680;2022-09-09T02:28:20;5.50;;;5.00;;
6979;SDS011;3530;52.832;10.680;2022-09-09T02:30:47;5.90;;;4.75;;
6979;SDS011;3530;52.832;10.680;2022-09-09T02:33:15;4.38;;;4.05;;
6979;SDS011;3530;52.832;10.680;2022-09-09T02:35:40;4.97;;;4.40;;
6979;SDS011;3530;52.832;10.680;2022-09-09T02:38:08;4.78;;;3.85;;
6979;SDS011;3530;52.832;10.680;2022-09-09T02:40:35;4.40;;;3.97;;
6979;SDS011;3530;52.832;10.680;2022-09-09T02:43:01;5.15;;;4.13;;
6979;SDS011;3530;52.832;10.680;2022-09-09T02:45:34;6.82;;;4.20;;
6979;SDS011;3530;52.832;10.680;2022-09-09T02:48:23;3.72;;;3.42;;
6979;SDS011;3530;52.832;10.680;2022-09-09T02:50:54;4.82;;;3.63;;
6979;SDS011;3530;52.832;10.680;2022-09-09T02:53:24;4.07;;;3.67;;
6979;SDS011;3530;52.832;10.680;2022-09-09T02:55:58;4.35;;;3.95;;
6979;SDS011;3530;52.832;10.680;2022-09-09T02:58:28;3.58;;;3.28;;
6979;SDS011;3530;52.832;10.680;2022-09-09T03:00:53;4.05;;;3.65;;
6979;SDS011;3530;52.832;10.680;2022-09-09T03:03:19;4.40;;;3.50;;
6979;SDS011;3530;52.832;10.680;2022-09-09T03:05:45;7.43;;;3.45;;
6979;SDS011;3530;52.832;10.680;2022-09-09T03:08:11;3.67;;;3.40;;
6979;SDS011;3530;52.832;10.680;2022-09-09T03:10:37;3.97;;;3.67;;
6979;SDS011;3530;52.832;10.680;2022-09-09T03:13:03;3.85;;;3.55;;
6979;SDS011;3530;52.832;10.680;2022-09-09T03:15:30;3.95;;;3.65;;
6979;SDS011;3530;52.832;10.680;2022-09-09T03:17:57;4.47;;;4.07;;
6979;SDS011;3530;52.832;10.680;2022-09-09T03:20:23;4.15;;;3.30;;
6979;SDS011;3530;52.832;10.680;2022-09-09T03:22:50;3.55;;;3.22;;
6979;SDS011;3530;52.832;10.680;2022-09-09T03:25:16;4.40;;;4.00;;
6979;SDS011;3530;52.832;10.680;2022-09-09T03:27:42;4.80;;;3.67;;
6979;SDS011;3530;52.832;10.680;2022-09-09T03:30:08;6.80;;;3.95;;
6979;SDS011;3530;52.832;10.680;2022-09-09T03:32:34;3.60;;;3.30;;
6979;SDS011;3530;52.832;10.680;2022-09-09T03:34:59;3.15;;;2.85;;
6979;SDS011;3530;52.832;10.680;2022-09-09T03:37:24;3.78;;;3.20;;
6979;SDS011;3530;52.832;10.680;2022-09-09T03:39:50;3.50;;;3.17;;
6979;SDS011;3530;52.832;10.680;2022-09-09T03:42:15;3.45;;;3.22;;
6979;SDS011;3530;52.832;10.680;2022-09-09T03:44:43;3.20;;;3.00;;
6979;SDS011;3530;52.832;10.680;2022-09-09T03:47:10;5.00;;;3.22;;
6979;SDS011;3530;52.832;10.680;2022-09-09T03:49:35;4.35;;;3.42;;
6979;SDS011;3530;52.832;10.680;2022-09-09T03:52:00;3.20;;;3.00;;
6979;SDS011;3530;52.832;10.680;2022-09-09T03:54:26;3.33;;;3.03;;
6979;SDS011;3530;52.832;10.680;2022-09-09T03:56:52;3.03;;;2.83;;
6979;SDS011;3530;52.832;10.680;2022-09-09T03:59:17;5.28;;;3.33;;
6979;SDS011;3530;52.832;10.680;2022-09-09T04:01:43;3.13;;;2.92;;
6979;SDS011;3530;52.832;10.680;2022-09-09T04:04:10;3.13;;;2.92;;
6979;SDS011;3530;52.832;10.680;2022-09-09T04:06:36;3.03;;;2.72;;
6979;SDS011;3530;52.832;10.680;2022-09-09T04:09:02;3.40;;;3.20;;
6979;SDS011;3530;52.832;10.680;2022-09-09T04:11:28;5.07;;;3.05;;
6979;SDS011;3530;52.832;10.680;2022-09-09T04:13:54;3.47;;;2.97;;
6979;SDS011;3530;52.832;10.680;2022-09-09T04:16:19;3.67;;;3.38;;
6979;SDS011;3530;52.832;10.680;2022-09-09T04:18:45;3.00;;;2.80;;
6979;SDS011;3530;52.832;10.680;2022-09-09T04:21:10;3.53;;;2.83;;
6979;SDS011;3530;52.832;10.680;2022-09-09T04:23:37;3.40;;;3.08;;
6979;SDS011;3530;52.832;10.680;2022-09-09T04:26:02;4.35;;;2.92;;
6979;SDS011;3530;52.832;10.680;2022-09-09T04:28:29;3.20;;;2.70;;
6979;SDS011;3530;52.832;10.680;2022-09-09T04:30:56;4.10;;;3.67;;
6979;SDS011;3530;52.832;10.680;2022-09-09T04:33:23;3.90;;;3.17;;
6979;SDS011;3530;52.832;10.680;2022-09-09T04:35:50;3.40;;;3.10;;
6979;SDS011;3530;52.832;10.680;2022-09-09T04:38:18;3.05;;;2.85;;
6979;SDS011;3530;52.832;10.680;2022-09-09T04:40:46;3.13;;;2.92;;
6979;SDS011;3530;52.832;10.680;2022-09-09T04:43:11;3.22;;;2.92;;
6979;SDS011;3530;52.832;10.680;2022-09-09T04:45:37;2.67;;;2.58;;
6979;SDS011;3530;52.832;10.680;2022-09-09T04:48:02;3.22;;;2.55;;
6979;SDS011;3530;52.832;10.680;2022-09-09T04:50:28;2.40;;;2.30;;
6979;SDS011;3530;52.832;10.680;2022-09-09T04:52:54;2.90;;;2.70;;
6979;SDS011;3530;52.832;10.680;2022-09-09T04:55:19;2.78;;;2.58;;
6979;SDS011;3530;52.832;10.680;2022-09-09T04:57:45;4.43;;;2.70;;
6979;SDS011;3530;52.832;10.680;2022-09-09T05:00:10;3.65;;;3.45;;
6979;SDS011;3530;52.832;10.680;2022-09-09T05:02:37;2.90;;;2.80;;
6979;SDS011;3530;52.832;10.680;2022-09-09T05:05:03;6.30;;;3.50;;
6979;SDS011;3530;52.832;10.680;2022-09-09T05:07:29;3.55;;;3.25;;
6979;SDS011;3530;52.832;10.680;2022-09-09T05:09:56;2.88;;;2.67;;
6979;SDS011;3530;52.832;10.680;2022-09-09T05:12:21;3.95;;;3.55;;
6979;SDS011;3530;52.832;10.680;2022-09-09T05:14:50;4.72;;;2.95;;
6979;SDS011;3530;52.832;10.680;2022-09-09T05:17:15;2.90;;;2.80;;
6979;SDS011;3530;52.832;10.680;2022-09-09T05:19:41;2.80;;;2.60;;
6979;SDS011;3530;52.832;10.680;2022-09-09T05:22:06;3.97;;;3.13;;
6979;SDS011;3530;52.832;10.680;2022-09-09T05:24:32;3.50;;;2.72;;
6979;SDS011;3530;52.832;10.680;2022-09-09T05:26:58;3.03;;;2.70;;
6979;SDS011;3530;52.832;10.680;2022-09-09T05:29:24;2.83;;;2.63;;
6979;SDS011;3530;52.832;10.680;2022-09-09T05:31:51;3.08;;;2.83;;
6979;SDS011;3530;52.832;10.680;2022-09-09T05:34:16;2.83;;;2.53;;
6979;SDS011;3530;52.832;10.680;2022-09-09T05:36:42;2.47;;;2.33;;
6979;SDS011;3530;52.832;10.680;2022-09-09T05:39:07;2.92;;;2.30;;
6979;SDS011;3530;52.832;10.680;2022-09-09T05:41:32;2.25;;;2.15;;
6979;SDS011;3530;52.832;10.680;2022-09-09T05:43:59;1.95;;;1.85;;
6979;SDS011;3530;52.832;10.680;2022-09-09T05:46:26;4.63;;;2.40;;
6979;SDS011;3530;52.832;10.680;2022-09-09T05:48:51;5.75;;;2.20;;
6979;SDS011;3530;52.832;10.680;2022-09-09T05:51:18;2.28;;;2.10;;
6979;SDS011;3530;52.832;10.680;2022-09-09T05:53:46;3.00;;;2.15;;
6979;SDS011;3530;52.832;10.680;2022-09-09T05:56:13;2.20;;;1.92;;
6979;SDS011;3530;52.832;10.680;2022-09-09T05:58:42;2.88;;;2.40;;
6979;SDS011;3530;52.832;10.680;2022-09-09T06:01:12;2.67;;;2.47;;
6979;SDS011;3530;52.832;10.680;2022-09-09T06:03:39;2.30;;;2.17;;
6979;SDS011;3530;52.832;10.680;2022-09-09T06:06:06;2.28;;;2.17;;
6979;SDS011;3530;52.832;10.680;2022-09-09T06:08:33;2.83;;;2.63;;
6979;SDS011;3530;52.832;10.680;2022-09-09T06:11:07;2.30;;;2.20;;
6979;SDS011;3530;52.832;10.680;2022-09-09T06:13:34;3.53;;;2.22;;
6979;SDS011;3530;52.832;10.680;2022-09-09T06:16:02;2.40;;;2.20;;
6979;SDS011;3530;52.832;10.680;2022-09-09T06:18:27;2.33;;;2.13;;
6979;SDS011;3530;52.832;10.680;2022-09-09T06:20:58;2.30;;;2.10;;
6979;SDS011;3530;52.832;10.680;2022-09-09T06:23:25;2.55;;;2.35;;
6979;SDS011;3530;52.832;10.680;2022-09-09T06:25:51;2.47;;;2.30;;
6979;SDS011;3530;52.832;10.680;2022-09-09T06:28:26;2.25;;;2.15;;
6979;SDS011;3530;52.832;10.680;2022-09-09T06:30:56;2.65;;;2.45;;
6979;SDS011;3530;52.832;10.680;2022-09-09T06:33:25;3.78;;;2.28;;
6979;SDS011;3530;52.832;10.680;2022-09-09T06:35:52;2.35;;;2.25;;
6979;SDS011;3530;52.832;10.680;2022-09-09T06:38:18;2.22;;;2.00;;
6979;SDS011;3530;52.832;10.680;2022-09-09T06:40:50;2.08;;;1.98;;
6979;SDS011;3530;52.832;10.680;2022-09-09T06:43:20;2.47;;;2.25;;
6979;SDS011;3530;52.832;10.680;2022-09-09T06:45:56;3.00;;;2.40;;
6979;SDS011;3530;52.832;10.680;2022-09-09T06:48:25;2.30;;;2.00;;
6979;SDS011;3530;52.832;10.680;2022-09-09T06:50:59;2.17;;;1.85;;
6979;SDS011;3530;52.832;10.680;2022-09-09T06:53:45;2.72;;;2.35;;
6979;SDS011;3530;52.832;10.680;2022-09-09T06:58:39;2.47;;;1.90;;
6979;SDS011;3530;52.832;10.680;2022-09-09T07:01:09;2.78;;;2.13;;
6979;SDS011;3530;52.832;10.680;2022-09-09T07:03:35;2.78;;;1.70;;
6979;SDS011;3530;52.832;10.680;2022-09-09T07:06:01;2.30;;;2.20;;
6979;SDS011;3530;52.832;10.680;2022-09-09T07:08:27;2.47;;;2.25;;
6979;SDS011;3530;52.832;10.680;2022-09-09T07:10:53;2.35;;;2.15;;
6979;SDS011;3530;52.832;10.680;2022-09-09T07:13:25;2.67;;;2.50;;
6979;SDS011;3530;52.832;10.680;2022-09-09T07:15:52;2.58;;;2.38;;
6979;SDS011;3530;52.832;10.680;2022-09-09T07:18:18;2.10;;;2.00;;
6979;SDS011;3530;52.832;10.680;2022-09-09T07:20:52;4.53;;;2.40;;
6979;SDS011;3530;52.832;10.680;2022-09-09T07:23:18;3.03;;;2.47;;
6979;SDS011;3530;52.832;10.680;2022-09-09T07:25:46;3.95;;;2.20;;
6979;SDS011;3530;52.832;10.680;2022-09-09T07:28:12;2.65;;;1.65;;
6979;SDS011;3530;52.832;10.680;2022-09-09T07:30:38;2.47;;;2.10;;
6979;SDS011;3530;52.832;10.680;2022-09-09T07:33:05;3.97;;;2.72;;
6979;SDS011;3530;52.832;10.680;2022-09-09T07:35:30;3.28;;;2.35;;
6979;SDS011;3530;52.832;10.680;2022-09-09T07:37:55;5.15;;;2.72;;
6979;SDS011;3530;52.832;10.680;2022-09-09T07:40:21;2.22;;;2.13;;
6979;SDS011;3530;52.832;10.680;2022-09-09T07:42:46;4.07;;;2.10;;
6979;SDS011;3530;52.832;10.680;2022-09-09T07:45:12;2.03;;;1.92;;
6979;SDS011;3530;52.832;10.680;2022-09-09T07:47:37;2.70;;;2.50;;
6979;SDS011;3530;52.832;10.680;2022-09-09T07:50:03;2.47;;;2.25;;
6979;SDS011;3530;52.832;10.680;2022-09-09T07:52:28;2.97;;;2.20;;
6979;SDS011;3530;52.832;10.680;2022-09-09T07:54:54;6.07;;;2.72;;
6979;SDS011;3530;52.832;10.680;2022-09-09T07:57:21;4.18;;;2.80;;
6979;SDS011;3530;52.832;10.680;2022-09-09T07:59:46;3.03;;;2.30;;
6979;SDS011;3530;52.832;10.680;2022-09-09T08:02:12;2.03;;;1.83;;
6979;SDS011;3530;52.832;10.680;2022-09-09T08:04:37;2.05;;;1.80;;
6979;SDS011;3530;52.832;10.680;2022-09-09T08:07:02;5.80;;;2.50;;
6979;SDS011;3530;52.832;10.680;2022-09-09T08:09:28;3.45;;;2.45;;
6979;SDS011;3530;52.832;10.680;2022-09-09T08:11:54;2.67;;;2.47;;
6979;SDS011;3530;52.832;10.680;2022-09-09T08:14:22;2.50;;;2.22;;
6979;SDS011;3530;52.832;10.680;2022-09-09T08:16:48;6.50;;;2.42;;
6979;SDS011;3530;52.832;10.680;2022-09-09T08:19:14;2.95;;;2.38;;
6979;SDS011;3530;52.832;10.680;2022-09-09T08:21:40;5.25;;;2.42;;
6979;SDS011;3530;52.832;10.680;2022-09-09T08:24:07;2.47;;;2.28;;
6979;SDS011;3530;52.832;10.680;2022-09-09T08:26:34;3.05;;;2.35;;
6979;SDS011;3530;52.832;10.680;2022-09-09T08:29:01;1.70;;;1.60;;
6979;SDS011;3530;52.832;10.680;2022-09-09T08:31:29;2.00;;;1.90;;
6979;SDS011;3530;52.832;10.680;2022-09-09T08:33:59;1.80;;;1.70;;
6979;SDS011;3530;52.832;10.680;2022-09-09T08:36:27;2.10;;;2.00;;
6979;SDS011;3530;52.832;10.680;2022-09-09T08:38:55;4.28;;;2.28;;
6979;SDS011;3530;52.832;10.680;2022-09-09T08:52:54;2.53;;;1.98;;
6979;SDS011;3530;52.832;10.680;2022-09-09T08:58:06;3.45;;;2.92;;
6979;SDS011;3530;52.832;10.680;2022-09-09T09:06:05;2.70;;;1.90;;
6979;SDS011;3530;52.832;10.680;2022-09-09T09:08:36;1.73;;;1.63;;
6979;SDS011;3530;52.832;10.680;2022-09-09T09:11:06;1.92;;;1.83;;
6979;SDS011;3530;52.832;10.680;2022-09-09T09:16:26;1.88;;;1.77;;
6979;SDS011;3530;52.832;10.680;2022-09-09T09:18:54;2.20;;;1.88;;
6979;SDS011;3530;52.832;10.680;2022-09-09T09:21:31;2.33;;;2.22;;
6979;SDS011;3530;52.832;10.680;2022-09-09T09:24:07;2.78;;;1.92;;
6979;SDS011;3530;52.832;10.680;2022-09-09T09:26:41;4.43;;;2.10;;
6979;SDS011;3530;52.832;10.680;2022-09-09T09:29:10;2.28;;;1.88;;
6979;SDS011;3530;52.832;10.680;2022-09-09T09:31:37;2.35;;;2.15;;
6979;SDS011;3530;52.832;10.680;2022-09-09T09:34:02;3.50;;;2.00;;
6979;SDS011;3530;52.832;10.680;2022-09-09T09:36:41;3.13;;;2.25;;
6979;SDS011;3530;52.832;10.680;2022-09-09T09:39:09;2.47;;;2.28;;
6979;SDS011;3530;52.832;10.680;2022-09-09T09:41:36;2.53;;;2.40;;
6979;SDS011;3530;52.832;10.680;2022-09-09T09:44:03;2.30;;;2.17;;
6979;SDS011;3530;52.832;10.680;2022-09-09T09:46:30;4.05;;;2.72;;
6979;SDS011;3530;52.832;10.680;2022-09-09T09:48:59;2.33;;;1.70;;
6979;SDS011;3530;52.832;10.680;2022-09-09T09:51:30;2.25;;;2.03;;
6979;SDS011;3530;52.832;10.680;2022-09-09T09:54:14;2.83;;;2.20;;
6979;SDS011;3530;52.832;10.680;2022-09-09T09:56:41;2.70;;;2.10;;
6979;SDS011;3530;52.832;10.680;2022-09-09T10:01:48;1.75;;;1.65;;
6979;SDS011;3530;52.832;10.680;2022-09-09T10:04:14;3.75;;;2.25;;
6979;SDS011;3530;52.832;10.680;2022-09-09T10:06:48;4.53;;;2.35;;
6979;SDS011;3530;52.832;10.680;2022-09-09T10:09:27;2.45;;;1.70;;
6979;SDS011;3530;52.832;10.680;2022-09-09T10:17:21;2.00;;;1.90;;
6979;SDS011;3530;52.832;10.680;2022-09-09T10:20:04;3.22;;;2.10;;
6979;SDS011;3530;52.832;10.680;2022-09-09T10:23:00;2.17;;;2.08;;
6979;SDS011;3530;52.832;10.680;2022-09-09T10:31:06;2.35;;;2.08;;
6979;SDS011;3530;52.832;10.680;2022-09-09T10:34:03;2.05;;;1.73;;
6979;SDS011;3530;52.832;10.680;2022-09-09T10:36:31;1.88;;;1.85;;
6979;SDS011;3530;52.832;10.680;2022-09-09T10:38:58;4.15;;;2.28;;
6979;SDS011;3530;52.832;10.680;2022-09-09T10:44:06;4.35;;;2.00;;
6979;SDS011;3530;52.832;10.680;2022-09-09T10:49:48;4.72;;;1.88;;
6979;SDS011;3530;52.832;10.680;2022-09-09T10:55:20;2.83;;;2.63;;
6979;SDS011;3530;52.832;10.680;2022-09-09T10:57:49;3.75;;;1.83;;
6979;SDS011;3530;52.832;10.680;2022-09-09T11:02:48;2.38;;;2.20;;
6979;SDS011;3530;52.832;10.680;2022-09-09T11:05:18;4.55;;;2.13;;
6979;SDS011;3530;52.832;10.680;2022-09-09T11:07:54;2.90;;;2.42;;
6979;SDS011;3530;52.832;10.680;2022-09-09T11:10:36;3.38;;;2.22;;
6979;SDS011;3530;52.832;10.680;2022-09-09T11:13:20;1.92;;;1.83;;
6979;SDS011;3530;52.832;10.680;2022-09-09T11:15:59;2.85;;;2.05;;
6979;SDS011;3530;52.832;10.680;2022-09-09T11:18:29;2.65;;;2.45;;
6979;SDS011;3530;52.832;10.680;2022-09-09T11:20:58;2.25;;;2.03;;
6979;SDS011;3530;52.832;10.680;2022-09-09T11:23:38;2.35;;;2.13;;
6979;SDS011;3530;52.832;10.680;2022-09-09T11:26:06;3.95;;;2.40;;
6979;SDS011;3530;52.832;10.680;2022-09-09T11:36:36;2.10;;;2.00;;
6979;SDS011;3530;52.832;10.680;2022-09-09T11:44:39;1.88;;;1.77;;
6979;SDS011;3530;52.832;10.680;2022-09-09T11:47:16;1.85;;;1.80;;
6979;SDS011;3530;52.832;10.680;2022-09-09T11:49:51;2.20;;;1.88;;
6979;SDS011;3530;52.832;10.680;2022-09-09T11:52:34;3.55;;;1.88;;
6979;SDS011;3530;52.832;10.680;2022-09-09T11:55:23;3.28;;;1.90;;
6979;SDS011;3530;52.832;10.680;2022-09-09T11:58:00;1.92;;;1.77;;
6979;SDS011;3530;52.832;10.680;2022-09-09T12:00:36;5.30;;;2.13;;
6979;SDS011;3530;52.832;10.680;2022-09-09T12:03:02;2.50;;;2.33;;
6979;SDS011;3530;52.832;10.680;2022-09-09T12:05:39;4.97;;;2.80;;
6979;SDS011;3530;52.832;10.680;2022-09-09T12:08:06;3.00;;;2.60;;
6979;SDS011;3530;52.832;10.680;2022-09-09T12:10:41;2.55;;;2.28;;
6979;SDS011;3530;52.832;10.680;2022-09-09T12:13:20;4.78;;;2.80;;
6979;SDS011;3530;52.832;10.680;2022-09-09T12:15:57;2.55;;;2.05;;
6979;SDS011;3530;52.832;10.680;2022-09-09T12:18:25;2.55;;;2.08;;
6979;SDS011;3530;52.832;10.680;2022-09-09T12:21:00;2.10;;;1.90;;
6979;SDS011;3530;52.832;10.680;2022-09-09T12:29:02;2.45;;;1.90;;
6979;SDS011;3530;52.832;10.680;2022-09-09T12:31:51;3.67;;;2.20;;
6979;SDS011;3530;52.832;10.680;2022-09-09T12:34:36;2.47;;;2.28;;
6979;SDS011;3530;52.832;10.680;2022-09-09T12:37:06;3.60;;;1.95;;
6979;SDS011;3530;52.832;10.680;2022-09-09T12:39:41;3.00;;;2.13;;
6979;SDS011;3530;52.832;10.680;2022-09-09T12:42:29;3.13;;;1.48;;
6979;SDS011;3530;52.832;10.680;2022-09-09T12:44:55;4.07;;;1.90;;
6979;SDS011;3530;52.832;10.680;2022-09-09T12:47:26;2.88;;;1.40;;
6979;SDS011;3530;52.832;10.680;2022-09-09T12:49:53;3.15;;;1.38;;
6979;SDS011;3530;52.832;10.680;2022-09-09T12:52:26;1.65;;;1.30;;
6979;SDS011;3530;52.832;10.680;2022-09-09T12:54:55;2.97;;;1.40;;
6979;SDS011;3530;52.832;10.680;2022-09-09T12:57:23;3.80;;;1.13;;
6979;SDS011;3530;52.832;10.680;2022-09-09T12:59:52;1.38;;;1.30;;
6979;SDS011;3530;52.832;10.680;2022-09-09T13:02:19;2.53;;;1.27;;
6979;SDS011;3530;52.832;10.680;2022-09-09T13:04:46;1.73;;;1.60;;
6979;SDS011;3530;52.832;10.680;2022-09-09T13:07:12;1.83;;;1.25;;
6979;SDS011;3530;52.832;10.680;2022-09-09T13:09:38;1.20;;;1.10;;
6979;SDS011;3530;52.832;10.680;2022-09-09T13:12:04;1.45;;;1.27;;
6979;SDS011;3530;52.832;10.680;2022-09-09T13:14:33;1.70;;;1.02;;
6979;SDS011;3530;52.832;10.680;2022-09-09T13:17:05;3.45;;;1.42;;
6979;SDS011;3530;52.832;10.680;2022-09-09T13:19:34;2.17;;;1.20;;
6979;SDS011;3530;52.832;10.680;2022-09-09T13:22:11;1.30;;;1.05;;
6979;SDS011;3530;52.832;10.680;2022-09-09T13:25:02;1.58;;;1.48;;
6979;SDS011;3530;52.832;10.680;2022-09-09T13:27:31;2.30;;;1.65;;
6979;SDS011;3530;52.832;10.680;2022-09-09T13:30:19;3.00;;;1.23;;
6979;SDS011;3530;52.832;10.680;2022-09-09T13:32:59;1.30;;;1.13;;
6979;SDS011;3530;52.832;10.680;2022-09-09T13:35:26;1.10;;;1.10;;
6979;SDS011;3530;52.832;10.680;2022-09-09T13:37:51;2.25;;;1.10;;
6979;SDS011;3530;52.832;10.680;2022-09-09T13:40:18;1.02;;;1.02;;
6979;SDS011;3530;52.832;10.680;2022-09-09T13:42:45;3.58;;;1.30;;
6979;SDS011;3530;52.832;10.680;2022-09-09T13:45:20;2.00;;;1.10;;
6979;SDS011;3530;52.832;10.680;2022-09-09T13:47:47;2.95;;;1.35;;
6979;SDS011;3530;52.832;10.680;2022-09-09T13:52:49;2.30;;;1.38;;
6979;SDS011;3530;52.832;10.680;2022-09-09T13:55:16;3.80;;;1.20;;
6979;SDS011;3530;52.832;10.680;2022-09-09T13:57:58;1.58;;;1.35;;
6979;SDS011;3530;52.832;10.680;2022-09-09T14:00:31;3.03;;;1.40;;
6979;SDS011;3530;52.832;10.680;2022-09-09T14:02:58;1.30;;;1.20;;
6979;SDS011;3530;52.832;10.680;2022-09-09T14:05:25;4.97;;;1.58;;
6979;SDS011;3530;52.832;10.680;2022-09-09T14:07:51;2.03;;;1.30;;
6979;SDS011;3530;52.832;10.680;2022-09-09T14:10:16;1.08;;;1.08;;
6979;SDS011;3530;52.832;10.680;2022-09-09T14:12:42;2.05;;;1.55;;
6979;SDS011;3530;52.832;10.680;2022-09-09T14:15:07;3.45;;;1.50;;
6979;SDS011;3530;52.832;10.680;2022-09-09T14:17:35;2.70;;;1.35;;
6979;SDS011;3530;52.832;10.680;2022-09-09T14:20:01;1.50;;;1.38;;
6979;SDS011;3530;52.832;10.680;2022-09-09T14:22:33;3.63;;;1.50;;
6979;SDS011;3530;52.832;10.680;2022-09-09T14:24:58;1.98;;;1.20;;
6979;SDS011;3530;52.832;10.680;2022-09-09T14:27:24;1.40;;;1.40;;
6979;SDS011;3530;52.832;10.680;2022-09-09T14:29:50;1.80;;;1.40;;
6979;SDS011;3530;52.832;10.680;2022-09-09T14:32:16;3.00;;;1.55;;
6979;SDS011;3530;52.832;10.680;2022-09-09T14:34:41;2.25;;;1.85;;
6979;SDS011;3530;52.832;10.680;2022-09-09T14:37:06;2.80;;;1.40;;
6979;SDS011;3530;52.832;10.680;2022-09-09T14:39:32;1.30;;;1.20;;
6979;SDS011;3530;52.832;10.680;2022-09-09T14:41:57;1.50;;;1.30;;
6979;SDS011;3530;52.832;10.680;2022-09-09T14:44:23;1.88;;;1.30;;
6979;SDS011;3530;52.832;10.680;2022-09-09T14:46:48;2.05;;;1.40;;
6979;SDS011;3530;52.832;10.680;2022-09-09T14:49:15;1.40;;;1.30;;
6979;SDS011;3530;52.832;10.680;2022-09-09T14:51:40;1.98;;;1.50;;
6979;SDS011;3530;52.832;10.680;2022-09-09T14:54:06;1.50;;;1.40;;
6979;SDS011;3530;52.832;10.680;2022-09-09T14:56:31;2.17;;;1.45;;
6979;SDS011;3530;52.832;10.680;2022-09-09T14:58:59;1.88;;;1.52;;
6979;SDS011;3530;52.832;10.680;2022-09-09T15:01:28;3.65;;;1.42;;
6979;SDS011;3530;52.832;10.680;2022-09-09T15:03:58;1.88;;;1.38;;
6979;SDS011;3530;52.832;10.680;2022-09-09T15:06:26;1.13;;;1.13;;
6979;SDS011;3530;52.832;10.680;2022-09-09T15:08:54;2.38;;;1.40;;
6979;SDS011;3530;52.832;10.680;2022-09-09T15:11:22;1.40;;;1.30;;
6979;SDS011;3530;52.832;10.680;2022-09-09T15:13:50;2.17;;;1.50;;
6979;SDS011;3530;52.832;10.680;2022-09-09T15:16:17;1.65;;;1.35;;
6979;SDS011;3530;52.832;10.680;2022-09-09T15:18:44;1.90;;;1.45;;
6979;SDS011;3530;52.832;10.680;2022-09-09T15:21:13;3.53;;;1.35;;
6979;SDS011;3530;52.832;10.680;2022-09-09T15:23:46;1.15;;;1.13;;
6979;SDS011;3530;52.832;10.680;2022-09-09T15:26:12;2.22;;;1.40;;
6979;SDS011;3530;52.832;10.680;2022-09-09T15:28:39;1.75;;;1.50;;
6979;SDS011;3530;52.832;10.680;2022-09-09T15:31:06;1.52;;;1.30;;
6979;SDS011;3530;52.832;10.680;2022-09-09T15:33:33;1.77;;;1.30;;
6979;SDS011;3530;52.832;10.680;2022-09-09T15:36:01;2.15;;;1.80;;
6979;SDS011;3530;52.832;10.680;2022-09-09T15:38:37;1.58;;;1.48;;
6979;SDS011;3530;52.832;10.680;2022-09-09T15:41:03;1.90;;;1.80;;
6979;SDS011;3530;52.832;10.680;2022-09-09T15:43:28;2.50;;;1.50;;
6979;SDS011;3530;52.832;10.680;2022-09-09T15:45:54;1.60;;;1.40;;
6979;SDS011;3530;52.832;10.680;2022-09-09T15:48:29;4.00;;;1.63;;
6979;SDS011;3530;52.832;10.680;2022-09-09T15:51:03;2.53;;;1.40;;
6979;SDS011;3530;52.832;10.680;2022-09-09T15:53:29;1.70;;;1.55;;
6979;SDS011;3530;52.832;10.680;2022-09-09T15:55:57;1.75;;;1.10;;
6979;SDS011;3530;52.832;10.680;2022-09-09T15:58:23;2.17;;;1.33;;
6979;SDS011;3530;52.832;10.680;2022-09-09T16:00:48;1.77;;;1.40;;
6979;SDS011;3530;52.832;10.680;2022-09-09T16:03:13;1.55;;;1.45;;
6979;SDS011;3530;52.832;10.680;2022-09-09T16:05:39;4.38;;;1.40;;
6979;SDS011;3530;52.832;10.680;2022-09-09T16:08:05;2.95;;;1.70;;
6979;SDS011;3530;52.832;10.680;2022-09-09T16:10:31;2.70;;;1.70;;
6979;SDS011;3530;52.832;10.680;2022-09-09T16:12:56;4.30;;;2.33;;
6979;SDS011;3530;52.832;10.680;2022-09-09T16:15:21;4.72;;;1.85;;
6979;SDS011;3530;52.832;10.680;2022-09-09T16:17:48;3.10;;;1.67;;
6979;SDS011;3530;52.832;10.680;2022-09-09T16:20:13;2.65;;;1.25;;
6979;SDS011;3530;52.832;10.680;2022-09-09T16:22:39;2.60;;;1.40;;
6979;SDS011;3530;52.832;10.680;2022-09-09T16:25:05;1.50;;;1.40;;
6979;SDS011;3530;52.832;10.680;2022-09-09T16:27:30;2.22;;;1.60;;
6979;SDS011;3530;52.832;10.680;2022-09-09T16:29:56;2.00;;;1.63;;
6979;SDS011;3530;52.832;10.680;2022-09-09T16:32:22;2.25;;;1.50;;
6979;SDS011;3530;52.832;10.680;2022-09-09T16:34:47;2.10;;;1.33;;
6979;SDS011;3530;52.832;10.680;2022-09-09T16:37:12;2.67;;;2.22;;
6979;SDS011;3530;52.832;10.680;2022-09-09T16:39:38;3.65;;;1.38;;
6979;SDS011;3530;52.832;10.680;2022-09-09T16:42:03;5.35;;;1.77;;
6979;SDS011;3530;52.832;10.680;2022-09-09T16:44:29;2.45;;;1.38;;
6979;SDS011;3530;52.832;10.680;2022-09-09T16:46:55;2.28;;;1.50;;
6979;SDS011;3530;52.832;10.680;2022-09-09T16:49:21;1.25;;;1.25;;
6979;SDS011;3530;52.832;10.680;2022-09-09T16:51:47;2.00;;;1.70;;
6979;SDS011;3530;52.832;10.680;2022-09-09T16:54:15;2.25;;;1.50;;
6979;SDS011;3530;52.832;10.680;2022-09-09T16:56:43;4.07;;;1.77;;
6979;SDS011;3530;52.832;10.680;2022-09-09T16:59:13;1.40;;;1.27;;